Hartshill, United Kingdom
Current Conditions -  °F | °C
As of 7:50 PM on Tuesday 21 Oct 2014 (Local Time) from EGBB Reporting Station
Scattered Clouds Scattered Clouds  
Wind Chill:   Ceiling: Unl
Heat Index:   Visibility: 6mi
Dew Point:   Wind: 17mph
Humidity: 66%   Direction: 290°WNW
Pressure: 29.97"   Gusts: 30mph
Location:  52.54°N, 1.52°W
Report Text: EGBB 211850Z 29015G26KT 9999 SCT046 08/02 Q1015
Loading
Personal Weather Stations






























Interactive Weather Map
Tropical Storm Tracking
New forecast layout! Learn more

10-Day Weather Forecast

Advertisements
Track Severe Weather on mobile